Time;durP1;ratioP1;P1;durP2;ratioP2;P2;SDS_P1;SDS_P2;PMS_P1;PMS_P2;Temp;Humidity;BMP_temperature;BMP_pressure;BME280_temperature;BME280_humidity;BME280_pressure;Samples;Min_cycle;Max_cycle;Signal;HPM_P1;HPM_P2
2024/01/14 00:01:58;;;;;;;6.22;0.70;;;;;;;;;;5002084;28;20041;-86
2024/01/14 00:04:24;;;;;;;5.85;0.77;;;;;;;;;;4990923;28;20038;-85
2024/01/14 00:06:50;;;;;;;1.98;0.63;;;;;;;;;;5004655;28;20048;-85
2024/01/14 00:09:17;;;;;;;2.30;0.47;;;;;;;;;;4983879;28;20053;-85
2024/01/14 00:11:43;;;;;;;0.85;0.45;;;;;;;;;;4997078;28;20080;-86
2024/01/14 00:14:09;;;;;;;0.68;0.68;;;;;;;;;;4984419;28;20038;-85
2024/01/14 00:16:35;;;;;;;3.97;0.73;;;;;;;;;;4999680;28;20413;-85
2024/01/14 00:19:09;;;;;;;5.93;0.35;;;;;;;;;;5000030;28;20045;-84
2024/01/14 00:21:35;;;;;;;3.97;0.50;;;;;;;;;;5000513;28;20420;-85
2024/01/14 00:24:03;;;;;;;2.63;0.35;;;;;;;;;;4984008;28;20129;-85
2024/01/14 00:26:29;;;;;;;2.05;0.43;;;;;;;;;;5004664;28;20131;-85
2024/01/14 00:28:57;;;;;;;4.72;1.00;;;;;;;;;;4997813;28;20039;-85
2024/01/14 00:31:23;;;;;;;2.05;0.32;;;;;;;;;;5002266;28;20536;-86
2024/01/14 00:33:50;;;;;;;0.73;0.45;;;;;;;;;;4984526;28;20096;-85
2024/01/14 00:36:16;;;;;;;6.10;1.65;;;;;;;;;;4999500;28;20051;-84
2024/01/14 00:38:42;;;;;;;6.72;0.75;;;;;;;;;;4982452;28;20041;-85
2024/01/14 00:41:08;;;;;;;3.53;0.30;;;;;;;;;;4999204;28;20045;-86
2024/01/14 00:43:34;;;;;;;3.95;0.43;;;;;;;;;;4998054;28;20378;-85
2024/01/14 00:46:02;;;;;;;4.45;0.43;;;;;;;;;;5000913;28;20049;-87
2024/01/14 00:48:28;;;;;;;4.05;0.98;;;;;;;;;;4979991;28;20038;-85
2024/01/14 00:50:54;;;;;;;2.17;0.50;;;;;;;;;;5001228;28;20057;-86
2024/01/14 00:53:20;;;;;;;3.08;0.52;;;;;;;;;;4999555;28;20125;-85
2024/01/14 00:55:46;;;;;;;2.22;0.60;;;;;;;;;;4997373;28;20049;-85
2024/01/14 00:58:12;;;;;;;2.90;0.90;;;;;;;;;;5000066;28;20043;-85
2024/01/14 01:00:38;;;;;;;2.63;0.45;;;;;;;;;;4999277;28;20041;-84
2024/01/14 01:03:04;;;;;;;0.00;0.00;;;;;;;;;;4998670;28;20050;-85
2024/01/14 01:05:30;;;;;;;3.08;1.33;;;;;;;;;;4998851;28;20494;-85
2024/01/14 01:07:56;;;;;;;0.10;0.10;;;;;;;;;;5003143;28;20046;-85
2024/01/14 01:10:22;;;;;;;3.97;0.90;;;;;;;;;;4995102;28;20095;-85
2024/01/14 01:12:48;;;;;;;7.90;0.88;;;;;;;;;;5000346;28;20440;-85
2024/01/14 01:15:14;;;;;;;0.65;0.20;;;;;;;;;;4997028;28;20069;-85
2024/01/14 01:17:40;;;;;;;0.38;0.38;;;;;;;;;;4992013;28;20042;-85
2024/01/14 01:20:10;;;;;;;3.67;1.17;;;;;;;;;;4997424;28;20069;-85
2024/01/14 01:22:36;;;;;;;3.33;0.85;;;;;;;;;;4982238;28;20047;-84
2024/01/14 01:25:02;;;;;;;1.77;0.45;;;;;;;;;;4980276;28;20130;-85
2024/01/14 01:27:29;;;;;;;0.93;0.43;;;;;;;;;;4983005;28;20089;-84
2024/01/14 01:29:56;;;;;;;15.48;0.90;;;;;;;;;;4980048;28;20046;-85
2024/01/14 01:32:22;;;;;;;4.03;0.82;;;;;;;;;;4963927;28;20042;-85
2024/01/14 01:34:48;;;;;;;2.03;0.47;;;;;;;;;;4977121;28;20461;-84
2024/01/14 01:37:14;;;;;;;1.85;0.40;;;;;;;;;;4962979;28;20402;-84
2024/01/14 01:39:40;;;;;;;1.90;0.60;;;;;;;;;;4959937;28;20042;-85
2024/01/14 01:42:06;;;;;;;10.23;2.30;;;;;;;;;;4983585;28;20037;-85
2024/01/14 01:44:33;;;;;;;0.98;0.32;;;;;;;;;;4980960;28;20039;-85
2024/01/14 01:47:00;;;;;;;1.10;0.63;;;;;;;;;;4982621;28;20409;-85
2024/01/14 01:49:26;;;;;;;4.85;0.80;;;;;;;;;;4980240;28;20442;-85
2024/01/14 01:51:52;;;;;;;0.52;0.20;;;;;;;;;;4979519;28;20043;-86
2024/01/14 01:54:23;;;;;;;2.08;0.50;;;;;;;;;;4962175;28;20038;-85
2024/01/14 01:56:51;;;;;;;1.45;0.63;;;;;;;;;;4962212;28;20035;-85
2024/01/14 01:59:17;;;;;;;0.93;0.47;;;;;;;;;;4966490;28;20042;-85
2024/01/14 02:01:45;;;;;;;5.07;0.60;;;;;;;;;;4957953;28;20037;-85
2024/01/14 02:04:11;;;;;;;3.58;0.80;;;;;;;;;;4975746;28;20121;-85
2024/01/14 02:06:38;;;;;;;0.50;0.47;;;;;;;;;;4959738;28;20046;-85
2024/01/14 02:09:07;;;;;;;2.35;0.25;;;;;;;;;;4958556;28;20457;-85
2024/01/14 02:11:33;;;;;;;3.13;0.52;;;;;;;;;;4963626;28;20050;-85
2024/01/14 02:13:59;;;;;;;2.03;0.28;;;;;;;;;;4963988;28;20081;-85
2024/01/14 02:16:25;;;;;;;1.15;0.52;;;;;;;;;;4962530;28;20046;-85
2024/01/14 02:18:51;;;;;;;5.10;0.85;;;;;;;;;;4963082;28;20045;-85
2024/01/14 02:21:23;;;;;;;3.75;0.70;;;;;;;;;;4962833;28;20052;-85
2024/01/14 02:23:53;;;;;;;3.60;0.63;;;;;;;;;;4962835;28;20129;-84
2024/01/14 02:26:19;;;;;;;3.67;1.10;;;;;;;;;;4959473;28;20046;-84
2024/01/14 02:28:45;;;;;;;2.78;0.20;;;;;;;;;;4978316;28;20042;-84
2024/01/14 02:31:11;;;;;;;2.97;0.73;;;;;;;;;;4966203;28;20038;-84
2024/01/14 02:33:37;;;;;;;0.68;0.45;;;;;;;;;;4978057;28;20031;-85
2024/01/14 02:36:03;;;;;;;1.50;0.43;;;;;;;;;;4973949;28;20043;-84
2024/01/14 02:38:29;;;;;;;0.90;0.25;;;;;;;;;;4974805;28;20043;-84
2024/01/14 02:40:55;;;;;;;2.28;0.98;;;;;;;;;;4963070;28;20035;-85
2024/01/14 02:43:21;;;;;;;3.03;0.40;;;;;;;;;;4982275;28;20097;-85
2024/01/14 02:45:47;;;;;;;2.25;0.70;;;;;;;;;;4968929;28;20042;-85
2024/01/14 02:48:13;;;;;;;4.10;0.68;;;;;;;;;;4981205;28;20046;-85
2024/01/14 02:50:39;;;;;;;0.85;0.25;;;;;;;;;;4966337;28;20370;-84
2024/01/14 02:53:05;;;;;;;2.55;0.30;;;;;;;;;;4978210;28;20102;-85
2024/01/14 02:55:31;;;;;;;3.72;0.52;;;;;;;;;;4967476;28;20933;-85
2024/01/14 02:57:57;;;;;;;3.67;0.50;;;;;;;;;;4968950;28;20042;-85
2024/01/14 03:00:23;;;;;;;4.95;0.80;;;;;;;;;;4967849;28;20066;-85
2024/01/14 03:02:49;;;;;;;1.17;0.40;;;;;;;;;;4980481;28;20074;-85
2024/01/14 03:05:15;;;;;;;3.28;0.88;;;;;;;;;;4981714;28;20047;-84
2024/01/14 03:07:41;;;;;;;5.25;0.73;;;;;;;;;;4960039;28;20034;-85
2024/01/14 03:10:07;;;;;;;3.83;0.65;;;;;;;;;;4964753;28;20401;-84
2024/01/14 03:12:33;;;;;;;3.38;0.40;;;;;;;;;;4967021;28;20034;-84
2024/01/14 03:14:59;;;;;;;2.72;0.30;;;;;;;;;;4967049;28;20039;-84
2024/01/14 03:17:25;;;;;;;3.55;1.05;;;;;;;;;;4961726;28;20070;-84
2024/01/14 03:19:51;;;;;;;5.10;1.10;;;;;;;;;;4982510;28;20101;-84
2024/01/14 03:22:17;;;;;;;7.93;0.80;;;;;;;;;;4982626;28;20062;-84
2024/01/14 03:24:44;;;;;;;4.50;0.80;;;;;;;;;;4965679;28;20042;-86
2024/01/14 03:27:10;;;;;;;0.98;0.17;;;;;;;;;;4984635;28;20099;-85
2024/01/14 03:29:36;;;;;;;5.07;1.00;;;;;;;;;;4984320;28;20035;-85
2024/01/14 03:32:02;;;;;;;0.13;0.10;;;;;;;;;;4967981;28;20486;-85
2024/01/14 03:34:28;;;;;;;2.28;0.50;;;;;;;;;;4981603;28;20038;-84
2024/01/14 03:36:54;;;;;;;2.13;0.55;;;;;;;;;;4961712;28;20458;-84
2024/01/14 03:39:20;;;;;;;4.18;1.00;;;;;;;;;;4985385;28;20129;-83
2024/01/14 03:41:46;;;;;;;2.63;0.55;;;;;;;;;;4966971;28;20045;-84
2024/01/14 03:44:12;;;;;;;5.32;1.05;;;;;;;;;;4984042;28;20416;-84
2024/01/14 03:46:38;;;;;;;6.18;1.08;;;;;;;;;;4982921;28;20034;-84
2024/01/14 03:49:04;;;;;;;1.90;0.30;;;;;;;;;;4986326;28;20034;-84
2024/01/14 03:51:30;;;;;;;3.70;0.60;;;;;;;;;;4982159;28;20490;-84
2024/01/14 03:53:56;;;;;;;2.25;0.17;;;;;;;;;;4964918;28;20109;-84
2024/01/14 03:56:22;;;;;;;6.03;1.55;;;;;;;;;;4963223;28;20043;-84
2024/01/14 03:58:48;;;;;;;1.30;0.30;;;;;;;;;;4948979;28;20069;-84
2024/01/14 04:01:17;;;;;;;1.45;0.47;;;;;;;;;;4966633;28;20039;-84
2024/01/14 04:03:43;;;;;;;4.15;0.82;;;;;;;;;;4962694;28;20053;-84
2024/01/14 04:06:09;;;;;;;5.13;1.15;;;;;;;;;;4961188;28;20085;-84
2024/01/14 04:08:35;;;;;;;3.90;0.45;;;;;;;;;;4957359;28;20406;-84
2024/01/14 04:11:01;;;;;;;3.70;0.47;;;;;;;;;;4966182;28;20042;-84
2024/01/14 04:13:27;;;;;;;3.55;0.88;;;;;;;;;;4967435;28;20078;-84
2024/01/14 04:15:56;;;;;;;4.75;0.50;;;;;;;;;;4968643;28;20078;-84
2024/01/14 04:18:22;;;;;;;2.58;0.50;;;;;;;;;;4961676;28;20409;-84
2024/01/14 04:20:48;;;;;;;3.22;0.35;;;;;;;;;;4969106;28;20042;-83
2024/01/14 04:23:14;;;;;;;6.25;1.23;;;;;;;;;;4971946;28;20545;-84
2024/01/14 04:25:40;;;;;;;4.55;1.33;;;;;;;;;;4973480;28;20076;-83
2024/01/14 04:28:06;;;;;;;2.58;1.05;;;;;;;;;;4965845;28;20047;-84
2024/01/14 04:30:32;;;;;;;2.67;0.47;;;;;;;;;;4973083;28;20054;-84
2024/01/14 04:32:58;;;;;;;2.88;0.95;;;;;;;;;;4962600;28;20047;-84
2024/01/14 04:35:25;;;;;;;2.95;0.40;;;;;;;;;;4952314;28;20051;-84
2024/01/14 04:37:51;;;;;;;1.92;0.43;;;;;;;;;;4972554;28;20490;-84
2024/01/14 04:40:17;;;;;;;4.45;0.55;;;;;;;;;;4986524;28;20041;-84
2024/01/14 04:42:43;;;;;;;4.20;0.50;;;;;;;;;;4987618;28;20038;-84
2024/01/14 04:45:09;;;;;;;5.07;0.75;;;;;;;;;;4991435;28;20070;-84
2024/01/14 04:47:35;;;;;;;3.60;0.28;;;;;;;;;;4963215;28;20045;-84
2024/01/14 04:50:01;;;;;;;3.70;2.15;;;;;;;;;;4965432;28;20510;-85
2024/01/14 04:52:27;;;;;;;3.15;0.75;;;;;;;;;;4972567;28;20078;-84
2024/01/14 04:54:53;;;;;;;1.92;0.40;;;;;;;;;;4987461;28;20382;-84
2024/01/14 04:57:19;;;;;;;9.43;1.48;;;;;;;;;;4969018;28;20407;-84
2024/01/14 04:59:45;;;;;;;4.65;1.00;;;;;;;;;;4953360;28;20042;-84
2024/01/14 05:02:11;;;;;;;3.45;0.57;;;;;;;;;;4990004;28;20102;-84
2024/01/14 05:04:37;;;;;;;2.03;0.17;;;;;;;;;;4971529;28;20042;-84
2024/01/14 05:07:03;;;;;;;2.70;0.82;;;;;;;;;;4972177;28;20413;-84
2024/01/14 05:09:29;;;;;;;6.15;0.40;;;;;;;;;;4985793;28;20045;-84
2024/01/14 05:11:55;;;;;;;7.50;1.20;;;;;;;;;;4989896;28;20102;-84
2024/01/14 05:14:21;;;;;;;1.23;0.40;;;;;;;;;;4953681;28;20122;-84
2024/01/14 05:16:47;;;;;;;4.82;0.95;;;;;;;;;;4968051;28;20035;-84
2024/01/14 05:19:13;;;;;;;3.47;0.40;;;;;;;;;;4973858;28;20452;-84
2024/01/14 05:21:39;;;;;;;3.85;0.50;;;;;;;;;;4984413;28;20049;-83
2024/01/14 05:24:05;;;;;;;5.18;1.10;;;;;;;;;;5006719;28;20042;-84
2024/01/14 05:26:31;;;;;;;0.90;0.45;;;;;;;;;;5005834;28;20046;-83
2024/01/14 05:28:59;;;;;;;2.00;0.30;;;;;;;;;;5005250;28;20050;-83
2024/01/14 05:31:26;;;;;;;0.00;0.00;;;;;;;;;;4987707;28;20050;-84
2024/01/14 05:33:52;;;;;;;2.10;0.17;;;;;;;;;;5005090;28;20077;-83
2024/01/14 05:36:18;;;;;;;0.13;0.13;;;;;;;;;;5001816;28;20042;-84
2024/01/14 05:38:44;;;;;;;4.57;0.90;;;;;;;;;;5003000;28;20041;-84
2024/01/14 05:41:13;;;;;;;0.45;0.20;;;;;;;;;;4999562;28;20084;-84
2024/01/14 05:43:39;;;;;;;0.28;0.20;;;;;;;;;;5000079;28;20088;-84
2024/01/14 05:46:05;;;;;;;5.28;0.45;;;;;;;;;;5002722;28;22327;-84
2024/01/14 05:48:31;;;;;;;2.33;0.52;;;;;;;;;;4999134;28;20643;-84
2024/01/14 05:50:58;;;;;;;0.13;0.10;;;;;;;;;;5001795;28;20097;-84
2024/01/14 05:53:23;;;;;;;2.08;0.32;;;;;;;;;;5000373;28;20039;-84
2024/01/14 05:55:49;;;;;;;3.72;0.50;;;;;;;;;;5000829;28;20486;-84
2024/01/14 05:58:15;;;;;;;2.70;0.50;;;;;;;;;;5003340;28;20048;-83
2024/01/14 06:00:41;;;;;;;3.22;0.22;;;;;;;;;;5000284;28;20478;-83
2024/01/14 06:03:07;;;;;;;6.50;0.93;;;;;;;;;;5000687;28;20034;-84
2024/01/14 06:05:33;;;;;;;1.15;0.50;;;;;;;;;;4999767;28;20042;-84
2024/01/14 06:07:59;;;;;;;0.10;0.10;;;;;;;;;;5000867;28;20046;-84
2024/01/14 06:10:26;;;;;;;0.52;0.32;;;;;;;;;;4988356;28;20093;-84
2024/01/14 06:12:52;;;;;;;1.02;0.40;;;;;;;;;;5002597;28;20045;-83
2024/01/14 06:15:18;;;;;;;0.73;0.25;;;;;;;;;;4999559;28;20405;-84
2024/01/14 06:17:44;;;;;;;2.70;0.47;;;;;;;;;;4998510;28;20037;-84
2024/01/14 06:20:10;;;;;;;4.78;0.70;;;;;;;;;;5001711;28;20034;-84
2024/01/14 06:22:36;;;;;;;1.15;0.08;;;;;;;;;;4991328;28;20051;-84
2024/01/14 06:25:02;;;;;;;1.10;0.63;;;;;;;;;;4984568;28;20038;-83
2024/01/14 06:27:28;;;;;;;2.45;0.28;;;;;;;;;;4988152;28;20176;-83
2024/01/14 06:29:54;;;;;;;2.30;0.57;;;;;;;;;;4988461;28;20034;-84
2024/01/14 06:32:20;;;;;;;2.17;0.70;;;;;;;;;;4967321;28;20064;-84
2024/01/14 06:34:46;;;;;;;2.80;0.85;;;;;;;;;;4992424;28;20402;-84
2024/01/14 06:37:12;;;;;;;1.17;0.32;;;;;;;;;;4971566;28;20053;-84
2024/01/14 06:39:38;;;;;;;1.45;0.60;;;;;;;;;;4978195;28;20050;-83
2024/01/14 06:42:04;;;;;;;5.68;0.70;;;;;;;;;;4979609;28;20054;-84
2024/01/14 06:44:30;;;;;;;1.17;0.40;;;;;;;;;;4960383;28;20044;-84
2024/01/14 06:46:56;;;;;;;3.22;1.50;;;;;;;;;;4965369;28;20043;-84
2024/01/14 06:49:22;;;;;;;7.07;1.45;;;;;;;;;;4978961;28;20045;-85
2024/01/14 06:51:48;;;;;;;3.72;0.73;;;;;;;;;;4955633;28;20101;-83
2024/01/14 06:54:15;;;;;;;0.40;0.20;;;;;;;;;;4988338;28;20138;-83
2024/01/14 06:56:45;;;;;;;2.92;0.90;;;;;;;;;;4978155;28;20110;-84
2024/01/14 06:59:14;;;;;;;0.93;0.20;;;;;;;;;;4954716;28;20039;-85
2024/01/14 07:01:40;;;;;;;0.40;0.20;;;;;;;;;;4963667;28;20035;-85
2024/01/14 07:04:06;;;;;;;3.22;0.73;;;;;;;;;;4964307;28;20039;-84
2024/01/14 07:06:32;;;;;;;2.35;0.80;;;;;;;;;;4966970;28;20101;-84
2024/01/14 07:08:58;;;;;;;4.97;0.73;;;;;;;;;;4942488;28;20043;-86
2024/01/14 07:11:24;;;;;;;2.85;0.10;;;;;;;;;;4968030;28;20189;-85
2024/01/14 07:13:50;;;;;;;0.82;0.10;;;;;;;;;;4968876;28;20074;-86
2024/01/14 07:16:16;;;;;;;2.10;0.65;;;;;;;;;;4962844;28;20047;-84
2024/01/14 07:18:42;;;;;;;1.45;0.30;;;;;;;;;;4969750;28;20138;-84
2024/01/14 07:21:10;;;;;;;0.35;0.32;;;;;;;;;;4977357;28;20062;-84
2024/01/14 07:23:37;;;;;;;4.78;0.50;;;;;;;;;;4999608;28;20053;-84
2024/01/14 07:26:05;;;;;;;4.38;0.60;;;;;;;;;;4997894;28;20089;-85
2024/01/14 07:28:31;;;;;;;2.05;1.13;;;;;;;;;;5003627;28;20070;-84
2024/01/14 07:30:57;;;;;;;1.10;0.38;;;;;;;;;;4985463;28;20120;-86
2024/01/14 07:33:23;;;;;;;11.60;0.75;;;;;;;;;;5006639;28;20454;-84
2024/01/14 07:35:49;;;;;;;4.70;0.70;;;;;;;;;;4999130;28;20042;-83
2024/01/14 07:38:15;;;;;;;2.42;0.20;;;;;;;;;;5002395;28;20065;-84
2024/01/14 07:40:41;;;;;;;1.88;0.60;;;;;;;;;;5000923;28;20045;-84
2024/01/14 07:43:07;;;;;;;0.45;0.28;;;;;;;;;;4998970;28;20399;-84
2024/01/14 07:45:33;;;;;;;0.95;0.32;;;;;;;;;;5003451;28;20382;-85
2024/01/14 07:47:59;;;;;;;1.15;0.38;;;;;;;;;;4992656;28;20421;-86
2024/01/14 07:50:25;;;;;;;3.22;1.00;;;;;;;;;;4974656;28;20049;-86
2024/01/14 07:52:51;;;;;;;1.08;0.25;;;;;;;;;;4997961;28;20050;-86
2024/01/14 07:55:17;;;;;;;0.52;0.17;;;;;;;;;;4995371;28;20046;-86
2024/01/14 07:57:43;;;;;;;0.22;0.13;;;;;;;;;;4996314;28;20133;-87
2024/01/14 08:00:10;;;;;;;0.43;0.40;;;;;;;;;;4981349;28;20219;-87
2024/01/14 08:02:36;;;;;;;0.68;0.32;;;;;;;;;;4984309;28;20033;-86
2024/01/14 08:05:02;;;;;;;6.60;1.35;;;;;;;;;;4980828;28;20036;-86
2024/01/14 08:07:28;;;;;;;2.92;1.27;;;;;;;;;;5000923;28;20121;-87
2024/01/14 08:09:54;;;;;;;1.77;0.52;;;;;;;;;;4982584;28;20038;-86
2024/01/14 08:12:20;;;;;;;2.38;0.45;;;;;;;;;;4983073;28;20042;-86
2024/01/14 08:14:46;;;;;;;2.20;0.40;;;;;;;;;;4978831;28;20757;-86
2024/01/14 08:17:12;;;;;;;0.10;0.05;;;;;;;;;;4998589;28;20038;-87
2024/01/14 08:19:38;;;;;;;0.77;0.68;;;;;;;;;;4999225;28;20045;-86
2024/01/14 08:22:04;;;;;;;2.35;0.20;;;;;;;;;;5002643;28;20041;-86
2024/01/14 08:24:30;;;;;;;0.08;0.00;;;;;;;;;;5004842;28;20042;-86
2024/01/14 08:26:56;;;;;;;2.15;0.38;;;;;;;;;;4987107;28;20038;-86
2024/01/14 08:29:22;;;;;;;0.45;0.20;;;;;;;;;;4996932;28;20472;-86
2024/01/14 08:31:48;;;;;;;0.13;0.13;;;;;;;;;;4998436;28;20041;-87
2024/01/14 08:34:14;;;;;;;5.10;0.68;;;;;;;;;;4995582;28;20037;-86
2024/01/14 08:36:40;;;;;;;0.52;0.20;;;;;;;;;;4993792;28;20034;-86
2024/01/14 08:39:06;;;;;;;1.60;0.80;;;;;;;;;;4998146;28;20046;-86
2024/01/14 08:41:32;;;;;;;0.00;0.00;;;;;;;;;;4994769;28;20390;-85
2024/01/14 08:43:59;;;;;;;3.75;0.40;;;;;;;;;;4995147;28;20040;-87
2024/01/14 08:46:26;;;;;;;2.00;0.43;;;;;;;;;;4993952;28;20460;-88
2024/01/14 08:48:52;;;;;;;1.55;1.38;;;;;;;;;;4974199;28;20105;-88
2024/01/14 08:51:18;;;;;;;0.63;0.20;;;;;;;;;;4994701;28;20039;-89
2024/01/14 08:53:44;;;;;;;2.35;0.50;;;;;;;;;;4983707;28;20037;-87
2024/01/14 08:56:10;;;;;;;0.85;0.85;;;;;;;;;;5000569;28;20038;-87
2024/01/14 08:58:36;;;;;;;1.75;0.10;;;;;;;;;;5000657;28;20038;-88
2024/01/14 09:01:02;;;;;;;1.25;0.32;;;;;;;;;;4984393;28;20038;-88
2024/01/14 09:03:28;;;;;;;0.20;0.20;;;;;;;;;;5001015;28;20386;-88
2024/01/14 09:05:54;;;;;;;2.60;0.47;;;;;;;;;;4997675;28;20049;-87
2024/01/14 09:08:21;;;;;;;2.63;0.47;;;;;;;;;;4996487;28;20042;-87
2024/01/14 09:10:47;;;;;;;4.93;0.70;;;;;;;;;;4983477;28;20121;-87
2024/01/14 09:13:13;;;;;;;3.80;0.63;;;;;;;;;;4983499;28;20054;-87
2024/01/14 09:15:40;;;;;;;0.00;0.00;;;;;;;;;;5001692;28;20038;-87
2024/01/14 09:18:06;;;;;;;1.15;0.30;;;;;;;;;;4983607;28;20493;-87
2024/01/14 09:20:32;;;;;;;0.05;0.00;;;;;;;;;;4979857;28;20049;-88
2024/01/14 09:22:58;;;;;;;2.03;0.47;;;;;;;;;;4983570;28;20046;-88
2024/01/14 09:25:24;;;;;;;0.22;0.22;;;;;;;;;;4983501;28;20038;-87
2024/01/14 09:27:50;;;;;;;5.95;0.40;;;;;;;;;;4998255;28;20042;-88
2024/01/14 09:30:16;;;;;;;5.35;0.45;;;;;;;;;;4998316;28;20401;-88
2024/01/14 09:32:42;;;;;;;0.25;0.25;;;;;;;;;;4999233;28;20101;-88
2024/01/14 09:35:08;;;;;;;0.50;0.32;;;;;;;;;;4981545;28;20038;-87
2024/01/14 09:37:35;;;;;;;5.28;0.50;;;;;;;;;;4983093;28;20092;-88
2024/01/14 09:40:02;;;;;;;0.65;0.25;;;;;;;;;;4982697;28;20076;-88
2024/01/14 09:42:33;;;;;;;2.30;0.30;;;;;;;;;;4980474;28;20091;-89
2024/01/14 09:45:00;;;;;;;2.10;0.47;;;;;;;;;;4983902;28;20038;-88
2024/01/14 09:47:26;;;;;;;1.27;0.50;;;;;;;;;;4981230;28;20046;-88
2024/01/14 09:49:53;;;;;;;5.80;0.38;;;;;;;;;;4979850;28;20041;-88
2024/01/14 09:52:21;;;;;;;1.67;0.20;;;;;;;;;;4995240;28;20450;-89
2024/01/14 09:54:48;;;;;;;0.10;0.10;;;;;;;;;;4981246;28;20050;-87
2024/01/14 09:57:15;;;;;;;0.45;0.15;;;;;;;;;;4983016;28;20046;-87
2024/01/14 09:59:43;;;;;;;0.47;0.17;;;;;;;;;;4981740;28;20089;-87
2024/01/14 10:02:11;;;;;;;0.00;0.00;;;;;;;;;;4980532;28;20061;-88
2024/01/14 10:04:42;;;;;;;0.08;0.05;;;;;;;;;;4979914;28;20093;-87
2024/01/14 10:07:09;;;;;;;3.92;0.10;;;;;;;;;;4998507;28;20042;-88
2024/01/14 10:09:35;;;;;;;1.00;0.20;;;;;;;;;;4995833;28;20041;-87
2024/01/14 10:12:02;;;;;;;0.40;0.30;;;;;;;;;;4994893;28;20052;-88
2024/01/14 10:14:28;;;;;;;1.27;0.40;;;;;;;;;;4985241;28;20041;-87
2024/01/14 10:16:58;;;;;;;0.70;0.30;;;;;;;;;;4998051;28;20042;-87
2024/01/14 10:19:24;;;;;;;2.45;0.50;;;;;;;;;;4979190;28;20073;-89
2024/01/14 10:21:54;;;;;;;0.43;0.10;;;;;;;;;;4980375;28;20046;-90
2024/01/14 10:24:21;;;;;;;0.00;0.00;;;;;;;;;;4991893;28;20489;-87
2024/01/14 10:26:51;;;;;;;0.10;0.10;;;;;;;;;;4981138;28;20034;-89
2024/01/14 10:29:17;;;;;;;1.25;0.28;;;;;;;;;;4973937;28;20169;-85
2024/01/14 10:31:43;;;;;;;1.27;0.40;;;;;;;;;;4991537;28;20070;-85
2024/01/14 10:34:09;;;;;;;2.63;0.43;;;;;;;;;;4995220;28;20041;-87
2024/01/14 10:36:37;;;;;;;0.57;0.45;;;;;;;;;;4993566;28;20093;-87
2024/01/14 10:39:04;;;;;;;0.73;0.43;;;;;;;;;;4986300;28;20038;-88
2024/01/14 10:41:30;;;;;;;0.50;0.20;;;;;;;;;;5000536;28;20404;-87
2024/01/14 10:43:56;;;;;;;0.70;0.52;;;;;;;;;;4997665;28;20046;-87
2024/01/14 10:46:23;;;;;;;1.27;0.70;;;;;;;;;;4982761;28;20049;-87
2024/01/14 10:49:09;;;;;;;2.08;1.00;;;;;;;;;;4999488;28;20037;-87
2024/01/14 10:51:47;;;;;;;6.10;1.35;;;;;;;;;;4993626;28;20040;-86
2024/01/14 10:54:20;;;;;;;3.60;1.05;;;;;;;;;;4982873;28;20053;-86
2024/01/14 10:56:50;;;;;;;4.57;2.50;;;;;;;;;;4996772;28;20053;-86
2024/01/14 10:59:19;;;;;;;2.25;1.80;;;;;;;;;;4996532;28;20074;-87
2024/01/14 11:01:49;;;;;;;7.00;2.40;;;;;;;;;;4998293;28;20046;-86
2024/01/14 11:04:17;;;;;;;7.22;2.65;;;;;;;;;;5002301;28;20042;-87
2024/01/14 11:06:45;;;;;;;9.88;4.05;;;;;;;;;;5005033;28;20080;-87
2024/01/14 11:09:11;;;;;;;8.18;3.78;;;;;;;;;;4985395;28;20146;-87
2024/01/14 11:11:41;;;;;;;5.18;2.22;;;;;;;;;;4998602;28;20509;-89
2024/01/14 11:14:23;;;;;;;4.50;2.67;;;;;;;;;;5002462;28;20046;-88
2024/01/14 11:16:59;;;;;;;9.27;4.07;;;;;;;;;;4986604;28;20045;-88
2024/01/14 11:19:29;;;;;;;5.18;3.17;;;;;;;;;;4989538;28;20041;-88
2024/01/14 11:22:15;;;;;;;10.23;4.78;;;;;;;;;;4986497;28;20132;-88
2024/01/14 11:24:41;;;;;;;8.90;2.70;;;;;;;;;;4980718;28;20061;-89
2024/01/14 11:27:08;;;;;;;3.00;2.15;;;;;;;;;;4984426;28;20039;-87
2024/01/14 11:29:36;;;;;;;11.13;3.65;;;;;;;;;;4994710;28;20034;-88
2024/01/14 11:32:06;;;;;;;5.80;3.17;;;;;;;;;;4984010;28;20046;-88
2024/01/14 11:34:59;;;;;;;2.53;1.60;;;;;;;;;;5003840;28;20038;-90
2024/01/14 11:37:39;;;;;;;1.52;0.80;;;;;;;;;;4987772;28;20054;-87
2024/01/14 11:40:08;;;;;;;4.20;2.00;;;;;;;;;;4988725;28;20102;-89
2024/01/14 11:42:38;;;;;;;7.68;3.05;;;;;;;;;;4997966;28;20033;-88
2024/01/14 11:45:12;;;;;;;3.45;1.85;;;;;;;;;;5000282;28;20037;-88
2024/01/14 11:47:40;;;;;;;2.85;1.30;;;;;;;;;;5001434;28;20050;-88
2024/01/14 11:50:08;;;;;;;5.32;1.55;;;;;;;;;;5001217;28;20398;-88
2024/01/14 11:52:36;;;;;;;7.18;2.08;;;;;;;;;;4985350;28;20104;-89
2024/01/14 11:55:05;;;;;;;2.75;1.73;;;;;;;;;;5000704;28;20440;-88
2024/01/14 11:57:32;;;;;;;4.97;3.60;;;;;;;;;;4995858;28;20046;-88
2024/01/14 11:59:58;;;;;;;4.28;1.90;;;;;;;;;;5000283;28;20116;-89
2024/01/14 12:02:24;;;;;;;2.25;1.48;;;;;;;;;;4997857;28;20046;-88
2024/01/14 12:04:51;;;;;;;2.85;1.65;;;;;;;;;;5001639;28;20038;-88
2024/01/14 12:07:21;;;;;;;7.10;3.05;;;;;;;;;;4999796;28;20050;-87
2024/01/14 12:09:53;;;;;;;10.25;3.17;;;;;;;;;;5003385;28;20121;-89
2024/01/14 12:12:19;;;;;;;5.97;2.17;;;;;;;;;;5000392;28;20104;-89
2024/01/14 12:14:45;;;;;;;6.82;3.22;;;;;;;;;;5003600;28;20440;-88
2024/01/14 12:17:12;;;;;;;5.68;2.17;;;;;;;;;;5001223;28;20045;-89
2024/01/14 12:19:38;;;;;;;4.35;2.70;;;;;;;;;;4985270;28;20041;-88
2024/01/14 12:22:04;;;;;;;2.13;1.67;;;;;;;;;;4997583;28;20100;-89
2024/01/14 12:24:30;;;;;;;4.97;2.63;;;;;;;;;;4981913;28;20043;-89
2024/01/14 12:26:59;;;;;;;3.58;1.67;;;;;;;;;;4982802;28;20092;-89
2024/01/14 12:29:25;;;;;;;6.20;3.15;;;;;;;;;;4984578;28;20072;-89
2024/01/14 12:31:51;;;;;;;3.10;1.95;;;;;;;;;;5003876;28;20042;-89
2024/01/14 12:34:17;;;;;;;4.22;2.13;;;;;;;;;;4996948;28;20033;-89
2024/01/14 12:36:44;;;;;;;1.42;0.88;;;;;;;;;;4998963;28;20177;-90
2024/01/14 12:39:10;;;;;;;8.00;3.33;;;;;;;;;;5001242;28;20045;-88
2024/01/14 12:41:37;;;;;;;5.70;2.63;;;;;;;;;;5001362;28;20062;-89
2024/01/14 12:44:03;;;;;;;7.80;3.88;;;;;;;;;;5001415;28;20044;-89
2024/01/14 12:46:31;;;;;;;6.15;3.08;;;;;;;;;;4981309;28;20038;-90
2024/01/14 12:49:04;;;;;;;11.20;5.85;;;;;;;;;;5001330;28;20042;-88
2024/01/14 12:51:29;;;;;;;6.18;3.47;;;;;;;;;;4979956;28;20038;-88
2024/01/14 12:53:55;;;;;;;5.05;3.72;;;;;;;;;;4996276;28;20046;-89
2024/01/14 12:56:23;;;;;;;5.55;3.20;;;;;;;;;;5000537;28;20405;-89
2024/01/14 12:58:49;;;;;;;14.55;6.88;;;;;;;;;;4995259;28;20509;-88
2024/01/14 13:01:19;;;;;;;6.18;2.95;;;;;;;;;;4983793;28;20488;-88
2024/01/14 13:03:45;;;;;;;12.07;5.88;;;;;;;;;;4997045;28;20038;-89
2024/01/14 13:06:11;;;;;;;5.43;2.20;;;;;;;;;;4980776;28;20041;-88
2024/01/14 13:08:37;;;;;;;3.35;3.05;;;;;;;;;;4994623;28;20048;-88
2024/01/14 13:11:03;;;;;;;10.30;4.43;;;;;;;;;;4994455;28;20050;-88
2024/01/14 13:13:29;;;;;;;4.70;2.22;;;;;;;;;;4974394;28;20042;-90
2024/01/14 13:15:56;;;;;;;14.23;4.93;;;;;;;;;;4984274;28;20046;-88
2024/01/14 13:18:24;;;;;;;7.97;3.55;;;;;;;;;;4985783;28;20096;-88
2024/01/14 13:20:51;;;;;;;2.72;2.08;;;;;;;;;;4983020;28;20037;-89
2024/01/14 13:23:17;;;;;;;3.83;2.20;;;;;;;;;;4966816;28;20043;-88
2024/01/14 13:25:43;;;;;;;4.07;2.75;;;;;;;;;;4944377;28;20046;-86
2024/01/14 13:28:09;;;;;;;8.35;3.42;;;;;;;;;;4968340;28;20038;-87
2024/01/14 13:30:35;;;;;;;7.88;3.85;;;;;;;;;;4958347;28;20056;-87
2024/01/14 13:33:01;;;;;;;9.93;5.78;;;;;;;;;;4953421;28;20038;-87
2024/01/14 13:35:27;;;;;;;12.15;6.35;;;;;;;;;;4974783;28;20045;-86
2024/01/14 13:37:53;;;;;;;7.57;4.75;;;;;;;;;;4973424;28;20397;-89
2024/01/14 13:40:19;;;;;;;5.22;2.85;;;;;;;;;;4966967;28;20034;-88
2024/01/14 13:42:45;;;;;;;8.18;4.70;;;;;;;;;;4974459;28;20065;-87
2024/01/14 13:45:11;;;;;;;8.35;2.88;;;;;;;;;;4975029;28;20034;-89
2024/01/14 13:47:37;;;;;;;7.97;3.75;;;;;;;;;;4974569;28;20428;-88
2024/01/14 13:50:06;;;;;;;7.78;4.03;;;;;;;;;;4973318;28;20501;-87
2024/01/14 13:52:32;;;;;;;3.85;2.58;;;;;;;;;;4966398;28;20117;-87
2024/01/14 13:54:58;;;;;;;11.23;5.28;;;;;;;;;;4952736;28;20074;-87
2024/01/14 13:57:24;;;;;;;6.47;3.22;;;;;;;;;;4974215;28;20042;-87
2024/01/14 13:59:50;;;;;;;2.65;1.40;;;;;;;;;;4974380;28;20092;-87
2024/01/14 14:02:18;;;;;;;3.95;1.33;;;;;;;;;;4969630;28;20046;-87
2024/01/14 14:04:44;;;;;;;4.28;1.67;;;;;;;;;;4956253;28;20050;-87
2024/01/14 14:07:10;;;;;;;6.43;2.28;;;;;;;;;;4970803;28;20046;-87
2024/01/14 14:09:36;;;;;;;6.88;3.22;;;;;;;;;;4954015;28;20057;-87
2024/01/14 14:12:03;;;;;;;5.90;2.97;;;;;;;;;;4974682;28;20034;-88
2024/01/14 14:14:29;;;;;;;4.38;1.80;;;;;;;;;;4969187;28;20462;-88
2024/01/14 14:16:55;;;;;;;5.43;2.15;;;;;;;;;;4971033;28;20121;-88
2024/01/14 14:19:21;;;;;;;2.55;1.38;;;;;;;;;;4954310;28;20034;-88
2024/01/14 14:21:48;;;;;;;3.67;1.13;;;;;;;;;;4965482;28;20057;-88
2024/01/14 14:24:15;;;;;;;1.40;0.93;;;;;;;;;;4983059;28;20042;-87
2024/01/14 14:26:41;;;;;;;0.90;0.60;;;;;;;;;;5000957;28;20038;-87
2024/01/14 14:29:07;;;;;;;2.03;0.75;;;;;;;;;;4995013;28;20049;-87
2024/01/14 14:31:33;;;;;;;2.72;1.30;;;;;;;;;;4997947;28;20053;-87
2024/01/14 14:33:59;;;;;;;1.55;0.77;;;;;;;;;;4996497;28;20042;-87
2024/01/14 14:36:25;;;;;;;4.22;1.20;;;;;;;;;;4983958;28;20064;-87
2024/01/14 14:38:51;;;;;;;1.73;0.65;;;;;;;;;;5003161;28;20048;-87
2024/01/14 14:41:20;;;;;;;1.77;0.30;;;;;;;;;;5005546;28;20046;-87